Time;durP1;ratioP1;P1;durP2;ratioP2;P2;SDS_P1;SDS_P2;PMS_P1;PMS_P2;Temp;Humidity;BMP_temperature;BMP_pressure;BME280_temperature;BME280_humidity;BME280_pressure;Samples;Min_cycle;Max_cycle;Signal;HPM_P1;HPM_P2
2023/12/04 00:01:16;;;;;;;11.38;6.47;;;;;;;4.54;49.81;100421.41;5064274;28;20045;-59
2023/12/04 00:03:44;;;;;;;14.45;7.25;;;;;;;4.70;50.60;100418.59;5048127;28;20560;-59
2023/12/04 00:06:11;;;;;;;13.63;6.32;;;;;;;4.40;49.63;100414.13;5041549;28;20644;-61
2023/12/04 00:08:39;;;;;;;12.63;6.82;;;;;;;4.78;49.88;100399.72;5042762;28;20045;-59
2023/12/04 00:11:07;;;;;;;12.70;6.07;;;;;;;4.82;49.42;100395.34;5038413;28;20471;-58
2023/12/04 00:13:35;;;;;;;12.90;6.78;;;;;;;4.74;49.12;100389.66;5023361;28;20036;-63
2023/12/04 00:16:03;;;;;;;12.65;6.50;;;;;;;4.78;50.07;100388.00;5044666;28;20041;-62
2023/12/04 00:18:30;;;;;;;12.13;6.53;;;;;;;4.76;49.95;100385.53;5048838;28;20053;-62
2023/12/04 00:20:58;;;;;;;14.48;6.30;;;;;;;4.71;49.65;100382.84;5031137;28;20133;-62
2023/12/04 00:23:25;;;;;;;13.02;6.75;;;;;;;4.92;49.49;100369.88;5030349;28;20072;-63
2023/12/04 00:25:54;;;;;;;10.20;5.70;;;;;;;4.83;49.50;100375.13;5045884;28;20051;-62
2023/12/04 00:28:21;;;;;;;11.30;6.30;;;;;;;4.84;48.84;100365.84;5049515;28;20056;-63
2023/12/04 00:30:49;;;;;;;11.02;5.85;;;;;;;4.97;49.11;100364.41;5052003;28;20047;-63
2023/12/04 00:33:16;;;;;;;11.88;5.72;;;;;;;4.98;49.09;100366.84;5057701;28;20075;-63
2023/12/04 00:35:44;;;;;;;12.20;6.20;;;;;;;5.13;49.34;100357.69;5070671;28;20056;-62
2023/12/04 00:38:20;;;;;;;11.05;6.05;;;;;;;5.17;48.74;100347.84;5061600;28;20416;-64
2023/12/04 00:40:51;;;;;;;;;;;;;;;5.30;49.03;100344.44;5047262;28;20061;-63
2023/12/04 00:43:18;;;;;;;11.43;5.78;;;;;;;5.27;48.53;100336.81;5040469;28;20614;-64
2023/12/04 00:45:46;;;;;;;11.60;5.60;;;;;;;5.25;48.72;100322.63;5035707;28;20057;-63
2023/12/04 00:48:13;;;;;;;12.40;6.13;;;;;;;5.12;49.21;100323.31;5042717;28;20056;-63
2023/12/04 00:50:41;;;;;;;11.52;6.10;;;;;;;5.14;49.27;100308.28;5032192;28;20045;-63
2023/12/04 00:53:08;;;;;;;10.43;5.40;;;;;;;5.12;48.95;100299.56;5032804;28;20060;-62
2023/12/04 00:55:35;;;;;;;10.85;5.93;;;;;;;5.13;49.05;100294.91;5031619;28;20396;-63
2023/12/04 00:58:03;;;;;;;11.25;6.07;;;;;;;4.99;49.04;100292.03;5046105;28;20060;-63
2023/12/04 01:00:30;;;;;;;10.05;5.65;;;;;;;5.03;49.72;100279.47;5056448;28;20045;-62
2023/12/04 01:02:58;;;;;;;10.70;5.68;;;;;;;5.03;49.90;100295.00;5016074;28;20064;-62
2023/12/04 01:05:25;;;;;;;10.25;5.50;;;;;;;5.09;49.56;100281.03;5038379;28;20060;-62
2023/12/04 01:07:52;;;;;;;9.13;4.80;;;;;;;5.56;48.35;100277.53;5051025;28;20458;-63
2023/12/04 01:10:20;;;;;;;10.07;5.00;;;;;;;5.25;48.92;100270.75;5050292;28;20053;-62
2023/12/04 01:12:47;;;;;;;9.35;5.13;;;;;;;5.18;49.03;100256.63;5063592;28;20483;-63
2023/12/04 01:15:14;;;;;;;10.20;5.25;;;;;;;5.34;48.77;100248.00;5048146;28;20061;-62
2023/12/04 01:17:43;;;;;;;10.20;5.07;;;;;;;5.30;49.33;100246.94;5046322;28;20052;-63
2023/12/04 01:20:10;;;;;;;13.40;5.35;;;;;;;5.22;48.97;100241.31;5049849;28;20045;-63
2023/12/04 01:22:38;;;;;;;8.50;4.70;;;;;;;5.36;48.97;100231.31;5049418;28;20546;-63
2023/12/04 01:25:05;;;;;;;10.55;4.90;;;;;;;5.41;49.06;100229.34;5049451;28;20056;-62
2023/12/04 01:27:35;;;;;;;9.80;5.10;;;;;;;5.38;48.81;100223.66;5047243;28;20045;-63
2023/12/04 01:30:02;;;;;;;9.77;5.50;;;;;;;5.46;48.67;100223.00;5044747;28;20079;-60
2023/12/04 01:32:30;;;;;;;9.88;5.13;;;;;;;5.64;48.38;100208.56;5048898;28;20158;-62
2023/12/04 01:34:57;;;;;;;12.68;5.03;;;;;;;5.50;48.94;100207.66;5053436;28;20060;-63
2023/12/04 01:37:24;;;;;;;8.88;4.63;;;;;;;5.37;49.05;100216.59;5049272;28;20057;-62
2023/12/04 01:39:51;;;;;;;9.05;5.15;;;;;;;5.44;49.13;100217.03;5045388;28;20495;-62
2023/12/04 01:42:19;;;;;;;8.88;4.80;;;;;;;5.86;48.33;100219.78;5053153;28;20048;-63
2023/12/04 01:45:08;;;;;;;10.43;5.40;;;;;;;5.77;48.08;100216.03;5050241;28;20049;-62
2023/12/04 01:47:35;;;;;;;10.20;5.53;;;;;;;5.57;48.58;100213.59;5054228;28;20049;-62
2023/12/04 01:50:04;;;;;;;9.50;5.10;;;;;;;5.44;48.94;100211.59;5060867;28;20045;-62
2023/12/04 01:52:31;;;;;;;10.07;5.00;;;;;;;5.22;49.61;100200.34;5047950;28;20052;-61
2023/12/04 01:54:59;;;;;;;9.60;4.82;;;;;;;5.27;49.71;100200.28;5046684;28;20104;-64
2023/12/04 01:57:26;;;;;;;9.32;4.85;;;;;;;5.43;49.44;100186.19;5044986;28;20049;-62
2023/12/04 01:59:59;;;;;;;9.23;4.90;;;;;;;5.66;48.66;100196.25;5043883;28;20061;-64
2023/12/04 02:02:42;;;;;;;8.98;5.00;;;;;;;5.68;48.82;100202.22;5050694;28;20049;-63
2023/12/04 02:05:09;;;;;;;9.38;5.47;;;;;;;5.62;48.81;100208.06;5053665;28;20041;-62
2023/12/04 02:07:36;;;;;;;9.38;4.97;;;;;;;5.57;48.91;100205.38;5052817;28;20048;-63
2023/12/04 02:10:06;;;;;;;11.32;5.60;;;;;;;5.45;49.26;100210.47;5050983;28;20045;-63
2023/12/04 02:12:33;;;;;;;10.70;4.80;;;;;;;5.50;49.12;100199.47;5056311;28;20052;-63
2023/12/04 02:15:01;;;;;;;9.73;5.20;;;;;;;5.55;49.13;100197.50;5063231;28;20056;-62
2023/12/04 02:17:29;;;;;;;8.15;4.80;;;;;;;5.54;48.93;100203.25;5052127;28;20064;-62
2023/12/04 02:19:57;;;;;;;9.50;5.18;;;;;;;5.47;49.72;100195.41;5050742;28;20576;-63
2023/12/04 02:22:24;;;;;;;11.02;5.07;;;;;;;5.55;48.81;100202.97;5050444;28;20654;-63
2023/12/04 02:24:51;;;;;;;8.60;4.53;;;;;;;5.62;49.54;100200.69;5052404;28;20278;-63
2023/12/04 02:27:25;;;;;;;13.20;4.75;;;;;;;5.66;49.31;100190.81;5050875;28;20574;-63
2023/12/04 02:29:59;;;;;;;10.20;5.22;;;;;;;5.56;49.39;100201.03;5054808;28;20044;-63
2023/12/04 02:32:29;;;;;;;9.18;5.32;;;;;;;5.70;49.32;100202.75;5053818;28;20067;-63
2023/12/04 02:34:59;;;;;;;10.57;5.18;;;;;;;5.73;49.15;100198.63;5045564;28;20060;-63
2023/12/04 02:37:27;;;;;;;8.65;5.20;;;;;;;5.59;49.18;100203.19;5054039;28;20052;-62
2023/12/04 02:39:55;;;;;;;9.55;5.35;;;;;;;5.71;49.34;100198.94;5050815;28;20053;-62
2023/12/04 02:42:24;;;;;;;8.10;4.65;;;;;;;5.60;49.66;100207.53;5052097;28;20053;-63
2023/12/04 02:44:52;;;;;;;11.50;5.18;;;;;;;5.69;49.35;100200.31;5052348;28;20435;-63
2023/12/04 02:47:19;;;;;;;9.55;5.28;;;;;;;5.81;48.77;100191.66;5054936;28;20083;-63
2023/12/04 02:49:46;;;;;;;10.02;5.18;;;;;;;5.61;49.50;100190.06;5051880;28;20057;-62
2023/12/04 02:52:17;;;;;;;12.15;5.90;;;;;;;5.63;49.79;100188.63;5050977;28;20048;-63
2023/12/04 02:54:53;;;;;;;11.27;4.75;;;;;;;5.72;49.48;100183.31;5050431;28;20694;-63
2023/12/04 02:57:21;;;;;;;8.75;4.90;;;;;;;5.94;49.17;100178.13;5056730;28;20052;-63
2023/12/04 02:59:48;;;;;;;8.57;5.03;;;;;;;5.74;49.66;100165.53;5051069;28;20049;-63
2023/12/04 03:02:16;;;;;;;10.30;4.93;;;;;;;5.67;50.06;100158.81;5051615;28;20056;-62
2023/12/04 03:04:46;;;;;;;10.52;5.38;;;;;;;5.70;50.11;100150.84;5050278;28;20428;-62
2023/12/04 03:07:13;;;;;;;8.68;5.07;;;;;;;5.69;50.12;100151.13;5033859;28;20060;-63
2023/12/04 03:09:41;;;;;;;9.57;5.07;;;;;;;5.72;50.41;100136.88;5050646;28;20051;-63
2023/12/04 03:12:18;;;;;;;9.50;5.13;;;;;;;5.63;50.76;100133.22;5051526;28;20045;-63
2023/12/04 03:14:45;;;;;;;;;;;;;;;5.65;50.88;100129.06;5049479;28;20037;-61
2023/12/04 03:17:12;;;;;;;9.48;4.93;;;;;;;5.72;50.59;100121.31;5051387;28;20412;-67
2023/12/04 03:19:40;;;;;;;11.07;4.93;;;;;;;5.62;50.76;100116.00;5050817;28;20045;-63
2023/12/04 03:22:07;;;;;;;9.65;4.88;;;;;;;5.82;50.57;100116.78;5051058;28;20053;-63
2023/12/04 03:24:34;;;;;;;7.55;4.65;;;;;;;5.81;50.73;100107.78;5050545;28;20052;-63
2023/12/04 03:27:02;;;;;;;8.75;4.57;;;;;;;5.68;50.96;100119.47;5049075;28;20057;-63
2023/12/04 03:29:29;;;;;;;8.60;4.97;;;;;;;5.71;51.77;100122.41;5051668;28;20044;-62
2023/12/04 03:31:57;;;;;;;8.23;4.43;;;;;;;5.86;51.48;100123.34;5055357;28;20053;-62
2023/12/04 03:34:24;;;;;;;9.65;4.78;;;;;;;5.68;51.95;100116.75;5048817;28;20048;-61
2023/12/04 03:36:52;;;;;;;8.38;4.50;;;;;;;5.62;52.30;100116.00;5052568;28;20045;-63
2023/12/04 03:39:19;;;;;;;8.80;4.60;;;;;;;5.67;52.84;100104.97;5050310;28;20065;-64
2023/12/04 03:41:47;;;;;;;8.55;4.93;;;;;;;5.70;53.24;100103.59;5050039;28;20049;-63
2023/12/04 03:44:14;;;;;;;10.20;5.25;;;;;;;5.58;53.57;100095.00;5050171;28;20057;-62
2023/12/04 03:46:41;;;;;;;9.85;4.70;;;;;;;5.57;53.53;100088.75;5047692;28;20049;-62
2023/12/04 03:49:09;;;;;;;8.70;4.82;;;;;;;5.78;53.42;100096.63;5050142;28;20060;-61
2023/12/04 03:51:36;;;;;;;11.48;4.53;;;;;;;5.71;53.92;100097.00;5049866;28;20068;-62
2023/12/04 03:54:04;;;;;;;8.48;4.32;;;;;;;5.79;54.08;100093.59;5052511;28;20543;-62
2023/12/04 03:56:31;;;;;;;9.65;5.05;;;;;;;5.70;55.85;100098.13;5054795;28;20471;-62
2023/12/04 03:58:58;;;;;;;9.55;4.78;;;;;;;5.66;55.74;100102.56;5050063;28;20067;-62
2023/12/04 04:01:25;;;;;;;9.25;4.40;;;;;;;5.59;57.20;100083.81;5048845;28;20689;-62
2023/12/04 04:03:53;;;;;;;10.00;4.35;;;;;;;5.66;57.60;100099.81;5049995;28;20053;-61
2023/12/04 04:06:21;;;;;;;7.85;3.83;;;;;;;5.56;58.94;100091.78;5046477;28;20151;-63
2023/12/04 04:08:48;;;;;;;8.43;4.68;;;;;;;5.62;60.00;100088.66;5047591;28;20053;-62
2023/12/04 04:11:15;;;;;;;7.65;4.15;;;;;;;5.63;60.52;100084.81;5048270;28;20068;-62
2023/12/04 04:13:42;;;;;;;11.20;4.80;;;;;;;5.58;61.50;100086.81;5042144;28;20717;-59
2023/12/04 04:16:14;;;;;;;7.88;4.53;;;;;;;5.38;63.37;100089.84;5050001;28;20511;-58
2023/12/04 04:18:43;;;;;;;8.75;4.80;;;;;;;5.36;63.75;100087.41;5044091;28;20384;-59
2023/12/04 04:21:10;;;;;;;11.40;4.97;;;;;;;5.29;65.12;100075.22;5049253;28;20051;-58
2023/12/04 04:23:37;;;;;;;8.45;4.47;;;;;;;5.31;65.35;100059.38;5043946;28;20045;-58
2023/12/04 04:26:05;;;;;;;8.98;5.05;;;;;;;5.55;65.26;100055.44;5049520;28;20041;-58
2023/12/04 04:28:32;;;;;;;9.60;4.80;;;;;;;5.36;66.04;100062.84;5049819;28;20065;-58
2023/12/04 04:30:59;;;;;;;7.88;4.50;;;;;;;5.25;66.87;100042.25;5057306;28;20523;-58
2023/12/04 04:33:27;;;;;;;10.70;4.80;;;;;;;5.15;68.44;100045.13;5056740;28;20135;-60
2023/12/04 04:35:54;;;;;;;9.02;4.80;;;;;;;5.13;69.22;100032.84;5054766;28;20045;-58
2023/12/04 04:38:21;;;;;;;12.30;4.93;;;;;;;5.28;69.32;100021.75;5052052;28;20064;-59
2023/12/04 04:40:49;;;;;;;9.25;3.95;;;;;;;5.02;70.24;100015.00;5049140;28;20053;-58
2023/12/04 04:43:16;;;;;;;9.75;4.90;;;;;;;5.09;71.54;100012.72;5049828;28;20053;-60
2023/12/04 04:45:43;;;;;;;8.85;4.63;;;;;;;5.17;71.95;100023.81;5049117;28;20558;-60
2023/12/04 04:48:11;;;;;;;7.28;4.25;;;;;;;5.13;73.40;100009.09;5052401;28;20045;-58
2023/12/04 04:50:38;;;;;;;8.95;4.78;;;;;;;4.97;74.54;99996.78;5040310;28;20575;-56
2023/12/04 04:53:05;;;;;;;9.60;5.10;;;;;;;5.00;75.42;100004.41;5049742;28;20049;-59
2023/12/04 04:55:32;;;;;;;8.93;4.63;;;;;;;4.81;76.15;100000.03;5049376;28;20064;-58
2023/12/04 04:58:16;;;;;;;11.68;4.68;;;;;;;4.77;77.52;99993.50;5046183;28;20298;-60
2023/12/04 05:00:44;;;;;;;9.85;5.43;;;;;;;4.94;77.29;99986.47;5049239;28;20049;-57
2023/12/04 05:03:11;;;;;;;10.30;5.25;;;;;;;5.04;77.14;99991.75;5047767;28;20057;-58
2023/12/04 05:05:38;;;;;;;9.38;5.00;;;;;;;4.98;78.69;99981.22;5048860;28;20053;-59
2023/12/04 05:08:05;;;;;;;9.30;5.07;;;;;;;4.90;79.39;99976.44;5048999;28;20056;-58
2023/12/04 05:10:33;;;;;;;9.35;4.53;;;;;;;5.00;78.95;99963.47;5047503;28;20061;-60
2023/12/04 05:13:00;;;;;;;9.45;4.97;;;;;;;4.69;79.91;99969.63;5048807;28;20044;-62
2023/12/04 05:15:27;;;;;;;10.30;5.18;;;;;;;4.81;80.61;99968.09;5047601;28;20041;-57
2023/12/04 05:17:54;;;;;;;8.85;4.93;;;;;;;4.72;81.46;99966.31;5049309;28;20053;-58
2023/12/04 05:20:22;;;;;;;9.30;4.32;;;;;;;4.64;83.05;99950.59;5047215;28;20056;-57
2023/12/04 05:22:49;;;;;;;8.43;4.40;;;;;;;4.52;84.77;99946.38;5048464;28;20053;-59
2023/12/04 05:25:16;;;;;;;9.75;5.32;;;;;;;4.74;83.96;99934.91;5044897;28;20041;-60
2023/12/04 05:27:44;;;;;;;10.75;5.18;;;;;;;4.75;83.72;99925.63;5048983;28;20052;-59
2023/12/04 05:30:13;;;;;;;11.15;5.35;;;;;;;4.97;83.55;99922.31;5054898;28;20060;-59
2023/12/04 05:32:41;;;;;;;9.88;5.13;;;;;;;5.11;82.75;99915.00;5050609;28;20048;-60
2023/12/04 05:35:08;;;;;;;9.80;5.32;;;;;;;5.05;83.02;99905.25;5051162;28;20059;-61
2023/12/04 05:37:35;;;;;;;8.90;4.63;;;;;;;4.80;84.18;99895.53;5051865;28;20044;-60
2023/12/04 05:40:04;;;;;;;9.05;4.80;;;;;;;4.92;84.83;99886.88;5051345;28;20564;-59
2023/12/04 05:42:32;;;;;;;9.60;4.70;;;;;;;4.98;84.29;99886.53;5052484;28;20065;-58
2023/12/04 05:45:00;;;;;;;9.93;4.57;;;;;;;4.98;84.65;99883.81;5050916;28;20049;-56
2023/12/04 05:47:27;;;;;;;8.82;4.82;;;;;;;5.05;84.81;99877.97;5053960;28;20099;-57
2023/12/04 05:49:55;;;;;;;8.98;4.88;;;;;;;4.92;84.87;99875.97;5055566;28;20055;-58
2023/12/04 05:52:22;;;;;;;9.25;5.00;;;;;;;4.67;87.56;99873.66;5051562;28;20049;-60
2023/12/04 05:54:49;;;;;;;11.05;4.88;;;;;;;4.83;87.98;99864.13;5054545;28;20044;-57
2023/12/04 05:57:17;;;;;;;10.45;4.85;;;;;;;4.55;88.38;99849.53;5056137;28;20148;-59
2023/12/04 05:59:44;;;;;;;9.50;4.60;;;;;;;4.75;89.27;99851.16;5053258;28;20056;-60
2023/12/04 06:02:12;;;;;;;11.48;4.88;;;;;;;4.88;88.82;99837.56;5051035;28;20055;-61
2023/12/04 06:04:40;;;;;;;8.73;4.63;;;;;;;4.90;88.18;99840.00;5052151;28;20053;-59
2023/12/04 06:07:07;;;;;;;9.73;4.65;;;;;;;4.88;88.76;99828.59;5052034;28;20557;-60
2023/12/04 06:09:36;;;;;;;7.72;4.53;;;;;;;4.91;88.82;99819.78;5051400;28;20049;-62
2023/12/04 06:12:08;;;;;;;8.50;4.43;;;;;;;4.91;88.92;99811.59;5046016;28;20067;-60
2023/12/04 06:14:35;;;;;;;9.02;4.40;;;;;;;4.94;89.60;99814.56;5034632;28;20599;-60
2023/12/04 06:17:03;;;;;;;9.80;4.85;;;;;;;5.03;89.13;99806.50;5050423;28;20049;-59
2023/12/04 06:19:34;;;;;;;8.25;4.78;;;;;;;4.94;90.13;99795.44;5034684;28;20056;-59
2023/12/04 06:22:01;;;;;;;9.65;4.53;;;;;;;4.88;90.52;99795.84;5050932;28;20052;-60
2023/12/04 06:24:29;;;;;;;8.63;4.00;;;;;;;4.82;91.11;99794.28;5051246;28;20068;-56
2023/12/04 06:26:57;;;;;;;8.57;4.53;;;;;;;4.98;91.61;99796.47;5048006;28;20055;-57
2023/12/04 06:29:25;;;;;;;10.52;4.70;;;;;;;5.06;91.23;99794.97;5050908;28;20055;-61
2023/12/04 06:31:53;;;;;;;9.57;4.70;;;;;;;5.03;92.04;99790.94;5057738;28;20051;-59
2023/12/04 06:34:21;;;;;;;8.43;4.20;;;;;;;5.05;92.71;99793.38;5033225;28;20057;-58
2023/12/04 06:36:49;;;;;;;8.68;4.25;;;;;;;5.03;93.77;99784.66;5051227;28;20045;-58
2023/12/04 06:39:17;;;;;;;8.48;4.30;;;;;;;4.85;95.21;99786.31;5051946;28;20048;-59
2023/12/04 06:41:46;;;;;;;8.27;4.38;;;;;;;4.88;95.82;99783.00;5051893;28;20064;-56
2023/12/04 06:44:14;;;;;;;8.40;4.07;;;;;;;4.83;96.84;99780.34;5051421;28;20057;-59
2023/12/04 06:46:43;;;;;;;7.78;4.22;;;;;;;4.85;97.63;99772.69;5055673;28;20503;-58
2023/12/04 06:49:14;;;;;;;10.17;4.10;;;;;;;5.01;97.98;99770.50;5051398;28;20060;-56
2023/12/04 06:51:52;;;;;;;8.23;4.10;;;;;;;4.95;98.02;99760.81;5051935;28;20049;-63
2023/12/04 06:54:19;;;;;;;9.15;4.18;;;;;;;4.95;98.46;99758.84;5050335;28;20056;-56
2023/12/04 06:56:47;;;;;;;7.70;3.83;;;;;;;4.87;99.15;99761.47;5049977;28;20522;-57
2023/12/04 06:59:14;;;;;;;8.55;4.53;;;;;;;4.79;99.53;99746.63;5067462;28;20090;-59
2023/12/04 07:01:42;;;;;;;11.07;4.35;;;;;;;4.66;100.00;99752.81;5052187;28;20559;-63
2023/12/04 07:04:23;;;;;;;7.63;4.13;;;;;;;4.95;100.00;99756.13;5051028;28;20053;-64
2023/12/04 07:07:08;;;;;;;11.60;4.47;;;;;;;4.99;100.00;99757.16;5031596;28;20056;-57
2023/12/04 07:09:36;;;;;;;8.43;4.20;;;;;;;4.95;100.00;99760.81;5030549;28;20419;-62
2023/12/04 07:12:03;;;;;;;8.85;4.75;;;;;;;5.10;100.00;99736.78;5032643;28;20057;-62
2023/12/04 07:14:31;;;;;;;8.48;4.10;;;;;;;5.14;100.00;99734.25;5013447;28;20050;-62
2023/12/04 07:17:00;;;;;;;8.82;4.75;;;;;;;5.25;100.00;99730.19;5031537;28;20041;-60
2023/12/04 07:19:28;;;;;;;9.32;4.18;;;;;;;5.41;100.00;99724.16;5030729;28;20049;-63
2023/12/04 07:21:56;;;;;;;7.72;4.03;;;;;;;5.24;100.00;99726.69;5030463;28;20072;-58
2023/12/04 07:24:23;;;;;;;7.93;4.00;;;;;;;5.43;100.00;99719.19;5032785;28;20037;-62
2023/12/04 07:26:54;;;;;;;8.23;3.80;;;;;;;5.19;100.00;99710.41;5008782;28;20862;-65
2023/12/04 07:29:55;;;;;;;8.20;3.88;;;;;;;5.18;100.00;99719.69;5032834;28;20053;-63
2023/12/04 07:32:29;;;;;;;9.60;4.03;;;;;;;5.23;100.00;99708.66;5033050;28;20061;-58
2023/12/04 07:35:29;;;;;;;6.40;3.60;;;;;;;5.50;100.00;99707.84;5043304;28;20512;-67
2023/12/04 07:38:07;;;;;;;6.55;3.60;;;;;;;5.38;100.00;99713.03;5036370;28;20053;-63
2023/12/04 07:40:35;;;;;;;7.80;4.10;;;;;;;5.36;100.00;99707.06;5038303;28;20045;-61
2023/12/04 07:43:04;;;;;;;8.77;3.22;;;;;;;5.41;100.00;99704.22;5007667;28;20056;-59
2023/12/04 07:45:36;;;;;;;9.48;4.10;;;;;;;5.54;100.00;99709.66;5027244;28;20053;-59
2023/12/04 07:48:07;;;;;;;9.20;3.70;;;;;;;5.38;100.00;99718.50;5010737;28;20049;-59
2023/12/04 07:50:46;;;;;;;8.55;3.90;;;;;;;5.49;100.00;99714.44;5029948;28;20049;-61
2023/12/04 07:53:13;;;;;;;9.00;4.30;;;;;;;5.58;100.00;99709.88;5037046;28;20051;-60
2023/12/04 07:55:41;;;;;;;7.97;3.45;;;;;;;5.52;100.00;99701.00;5025845;28;20172;-58
2023/12/04 07:58:08;;;;;;;12.13;4.38;;;;;;;5.72;100.00;99699.72;5023950;28;20456;-65
2023/12/04 08:00:35;;;;;;;6.40;3.25;;;;;;;5.44;100.00;99692.72;5024981;28;20738;-56
2023/12/04 08:03:03;;;;;;;9.20;3.90;;;;;;;5.39;100.00;99690.88;5024894;28;20056;-63
2023/12/04 08:05:31;;;;;;;8.13;3.50;;;;;;;5.30;100.00;99683.72;5025950;28;20057;-65
2023/12/04 08:07:59;;;;;;;8.25;3.50;;;;;;;5.49;100.00;99687.13;5026975;28;20045;-63
2023/12/04 08:10:26;;;;;;;8.18;4.05;;;;;;;5.58;100.00;99683.38;5026729;28;20054;-62
2023/12/04 08:12:54;;;;;;;7.15;3.78;;;;;;;5.55;100.00;99678.53;5020732;28;20053;-60
2023/12/04 08:15:21;;;;;;;8.52;3.88;;;;;;;5.63;100.00;99685.19;5024510;28;20057;-58
2023/12/04 08:17:48;;;;;;;7.03;3.47;;;;;;;5.61;100.00;99676.50;5020174;28;20050;-59
2023/12/04 08:20:16;;;;;;;9.73;3.65;;;;;;;5.64;100.00;99679.44;5027337;28;20045;-56
2023/12/04 08:22:54;;;;;;;8.18;4.20;;;;;;;5.63;100.00;99679.75;5027777;28;20053;-61
2023/12/04 08:25:22;;;;;;;9.48;4.32;;;;;;;5.53;100.00;99682.66;5027065;28;20057;-64
2023/12/04 08:27:49;;;;;;;7.85;4.03;;;;;;;5.80;100.00;99659.97;5029257;28;20163;-62
2023/12/04 08:30:18;;;;;;;8.45;4.13;;;;;;;5.69;100.00;99664.84;5015901;28;20084;-62
2023/12/04 08:32:45;;;;;;;7.25;3.58;;;;;;;5.68;100.00;99658.56;5028976;28;20041;-61
2023/12/04 08:35:12;;;;;;;7.43;3.60;;;;;;;5.53;100.00;99663.53;5014407;28;20519;-59
2023/12/04 08:37:40;;;;;;;8.77;4.50;;;;;;;5.61;100.00;99643.72;5024930;28;20046;-61
2023/12/04 08:40:08;;;;;;;9.40;3.92;;;;;;;5.63;100.00;99649.69;5027446;28;20053;-61
2023/12/04 08:42:35;;;;;;;7.53;4.40;;;;;;;5.63;100.00;99649.69;5024345;28;20054;-61
2023/12/04 08:45:05;;;;;;;8.30;3.70;;;;;;;5.32;100.00;99646.78;5041308;28;20053;-60
2023/12/04 08:47:33;;;;;;;;;;;;;;;5.40;100.00;99643.34;5021688;28;20053;-60
2023/12/04 08:50:01;;;;;;;8.75;4.28;;;;;;;5.56;100.00;99633.69;5020660;28;19932;-60
2023/12/04 08:52:28;;;;;;;7.82;3.60;;;;;;;5.65;100.00;99617.38;5021907;28;20060;-60
2023/12/04 08:54:56;;;;;;;9.35;4.22;;;;;;;5.87;100.00;99606.53;5027978;28;20049;-63
2023/12/04 08:57:23;;;;;;;6.65;3.60;;;;;;;5.61;100.00;99619.94;5024182;28;20076;-61
2023/12/04 08:59:51;;;;;;;8.40;4.15;;;;;;;5.71;100.00;99611.53;5024641;28;20053;-59
2023/12/04 09:02:18;;;;;;;6.35;3.78;;;;;;;5.80;100.00;99614.31;5023571;28;20518;-61
2023/12/04 09:04:45;;;;;;;8.80;4.20;;;;;;;5.88;100.00;99615.53;5019061;28;20052;-60
2023/12/04 09:07:14;;;;;;;9.45;3.97;;;;;;;5.85;100.00;99622.44;5023494;28;20066;-61
2023/12/04 09:09:46;;;;;;;8.32;4.00;;;;;;;6.11;100.00;99609.78;5025183;28;20429;-63
2023/12/04 09:12:14;;;;;;;6.93;3.50;;;;;;;6.25;100.00;99601.50;5027326;28;20053;-63
2023/12/04 09:14:41;;;;;;;7.35;3.65;;;;;;;6.34;100.00;99597.72;5030008;28;20168;-62
2023/12/04 09:17:08;;;;;;;5.60;3.10;;;;;;;6.22;100.00;99592.00;5029815;28;20083;-63
2023/12/04 09:19:36;;;;;;;8.27;3.30;;;;;;;5.99;100.00;99603.25;5030472;28;20098;-63
2023/12/04 09:22:03;;;;;;;6.10;2.95;;;;;;;6.19;100.00;99600.81;5026524;28;20053;-62
2023/12/04 09:24:44;;;;;;;7.53;3.20;;;;;;;6.12;100.00;99594.19;5029684;28;20049;-63
2023/12/04 09:27:11;;;;;;;6.63;3.08;;;;;;;6.13;100.00;99584.84;5034012;28;20048;-64
2023/12/04 09:29:40;;;;;;;6.35;3.40;;;;;;;6.06;100.00;99570.81;5031601;28;20076;-61
2023/12/04 09:32:08;;;;;;;7.32;3.55;;;;;;;5.98;100.00;99572.38;5027239;28;20056;-63
2023/12/04 09:34:35;;;;;;;10.75;3.80;;;;;;;5.92;100.00;99570.88;5016983;28;20060;-60
2023/12/04 09:37:03;;;;;;;7.57;3.70;;;;;;;5.93;100.00;99564.28;5026144;28;20054;-63
2023/12/04 09:39:37;;;;;;;12.75;4.43;;;;;;;6.09;100.00;99557.34;5029556;28;20057;-64
2023/12/04 09:42:06;;;;;;;7.68;3.92;;;;;;;6.14;100.00;99553.66;5032788;28;20049;-63
2023/12/04 09:44:34;;;;;;;7.43;3.45;;;;;;;5.99;100.00;99556.78;5031244;28;20053;-63
2023/12/04 09:47:04;;;;;;;6.65;2.92;;;;;;;6.24;100.00;99561.63;5027405;28;20394;-62
2023/12/04 09:49:32;;;;;;;8.68;3.63;;;;;;;6.25;100.00;99547.63;5023035;28;20057;-62
2023/12/04 09:52:01;;;;;;;10.48;3.78;;;;;;;6.28;100.00;99547.00;5026753;28;20045;-63
2023/12/04 09:54:29;;;;;;;8.15;3.20;;;;;;;6.22;100.00;99531.84;5023318;28;20045;-62
2023/12/04 09:56:57;;;;;;;6.50;3.05;;;;;;;6.44;100.00;99522.78;5025425;28;20049;-63
2023/12/04 09:59:29;;;;;;;6.75;3.45;;;;;;;6.44;100.00;99523.59;5010786;28;20445;-64
2023/12/04 10:01:57;;;;;;;8.60;3.00;;;;;;;6.48;100.00;99518.31;5023718;28;20046;-62
2023/12/04 10:04:25;;;;;;;9.38;3.90;;;;;;;6.42;100.00;99517.63;5029299;28;20049;-63
2023/12/04 10:06:52;;;;;;;9.73;4.43;;;;;;;6.53;100.00;99504.47;5030954;28;20049;-63
2023/12/04 10:09:22;;;;;;;7.65;3.40;;;;;;;6.58;100.00;99502.41;5019446;28;20038;-63
2023/12/04 10:11:53;;;;;;;8.05;3.38;;;;;;;6.52;100.00;99495.47;5024456;28;20061;-62
2023/12/04 10:14:21;;;;;;;9.98;4.13;;;;;;;6.56;100.00;99485.50;5031208;28;20056;-63
2023/12/04 10:16:49;;;;;;;12.73;3.67;;;;;;;6.75;100.00;99480.56;5025147;28;20050;-62
2023/12/04 10:19:28;;;;;;;11.32;6.90;;;;;;;6.82;100.00;99467.22;5025252;28;20504;-63
2023/12/04 10:22:00;;;;;;;10.60;5.28;;;;;;;6.87;100.00;99485.41;5025098;28;20052;-62
2023/12/04 10:24:35;;;;;;;11.15;5.13;;;;;;;7.02;100.00;99465.00;5023297;28;20064;-61
2023/12/04 10:27:14;;;;;;;7.40;4.35;;;;;;;7.23;100.00;99468.72;5019690;28;20049;-56
2023/12/04 10:29:47;;;;;;;7.13;3.67;;;;;;;7.14;100.00;99460.50;5023596;28;20033;-63
2023/12/04 10:32:23;;;;;;;10.88;4.40;;;;;;;7.07;100.00;99464.84;5024546;28;20058;-64
2023/12/04 10:35:00;;;;;;;7.97;4.10;;;;;;;7.23;100.00;99460.50;5013433;28;20148;-61
2023/12/04 10:37:47;;;;;;;;;;;;;;;;;;;;;
2023/12/04 10:40:37;;;;;;;7.97;3.97;;;;;;;7.29;100.00;99449.06;5028208;28;20682;-63
2023/12/04 10:43:08;;;;;;;8.05;3.55;;;;;;;7.53;100.00;99460.31;5035896;28;20041;-63
2023/12/04 10:45:40;;;;;;;10.02;3.95;;;;;;;7.58;99.84;99440.19;5023798;28;20058;-62
2023/12/04 10:48:23;;;;;;;9.52;4.10;;;;;;;7.48;100.00;99435.84;5024998;28;20053;-64
2023/12/04 10:50:50;;;;;;;7.22;3.40;;;;;;;7.53;100.00;99441.16;5023782;28;20053;-63
2023/12/04 10:53:17;;;;;;;8.75;4.28;;;;;;;7.73;99.71;99442.41;5029806;28;20035;-63
2023/12/04 10:55:45;;;;;;;6.50;3.63;;;;;;;7.68;99.25;99417.91;5009946;28;20045;-63
2023/12/04 10:58:17;;;;;;;8.75;3.97;;;;;;;7.73;99.34;99417.75;5022461;28;20038;-62
2023/12/04 11:00:46;;;;;;;7.30;3.90;;;;;;;7.78;98.97;99401.94;5024084;28;20052;-61
2023/12/04 11:03:35;;;;;;;7.38;3.65;;;;;;;7.88;98.83;99389.78;5023131;28;20050;-61
2023/12/04 11:06:07;;;;;;;7.72;3.65;;;;;;;7.92;98.84;99390.75;5027095;28;20053;-62
2023/12/04 11:08:36;;;;;;;9.52;3.80;;;;;;;8.05;98.32;99372.50;5010702;28;20045;-68
2023/12/04 11:11:07;;;;;;;8.10;3.60;;;;;;;7.79;97.87;99369.84;5006872;28;20074;-63
2023/12/04 11:13:37;;;;;;;8.45;3.25;;;;;;;8.05;98.72;99367.81;5017976;28;20053;-63
2023/12/04 11:16:26;;;;;;;6.28;3.17;;;;;;;8.31;97.07;99349.31;5022018;28;20067;-63
2023/12/04 11:19:01;;;;;;;10.35;3.50;;;;;;;8.13;96.06;99355.19;5018650;28;20907;-63
2023/12/04 11:21:32;;;;;;;6.22;3.53;;;;;;;8.12;96.76;99346.16;5024537;28;20054;-60
2023/12/04 11:24:00;;;;;;;10.52;4.53;;;;;;;8.20;96.99;99344.50;5027672;28;20053;-61
2023/12/04 11:26:28;;;;;;;9.48;4.20;;;;;;;8.37;97.09;99345.25;5021196;28;20053;-62
2023/12/04 11:28:55;;;;;;;7.68;3.63;;;;;;;8.38;96.45;99327.66;5012069;28;20083;-59
2023/12/04 11:31:23;;;;;;;11.02;4.60;;;;;;;8.30;96.99;99324.97;5026491;28;20563;-60
2023/12/04 11:33:50;;;;;;;21.10;14.20;;;;;;;8.43;96.96;99327.47;5027201;28;20038;-61
2023/12/04 11:36:18;;;;;;;17.60;11.10;;;;;;;8.44;97.01;99320.03;5026910;28;20045;-60
2023/12/04 11:38:46;;;;;;;16.73;7.88;;;;;;;8.54;96.30;99305.91;5025335;28;20425;-60
2023/12/04 11:41:17;;;;;;;11.83;6.70;;;;;;;8.79;95.75;99304.91;5021719;28;20053;-60
2023/12/04 11:43:50;;;;;;;8.95;4.55;;;;;;;9.08;94.27;99291.88;5022075;28;20303;-60